Ana Sayfa
METAR-TAF:

METAR-TAF

Havaalanları :

Tennant Creek, Avustralya

Enlem: 19-38-04S, Boylam: 134-11-00E, yükseklik: 377 m

Güncel hava durumu gözlemi

Rapor saat 18:00 UTC de 42 dakika önce yapıldı.
Rüzgar doğu/kuzeydoğudan 8 kt
Sıcaklık 32°C
Nem 18%
Basınç 1009 hPa
Görüş mesafesi 10 km veya daha fazla

METAR: YTNK 101800Z AUTO 06008KT 9999 // NCD 32/05 Q1009

Saat: 04:12 (18:42 UTC)

Tahmin

Rapor saat 12:03 UTC de 6 saat ve 39 dakika önce yapıldı.
Ayın 10'si saat 14 UTC'den ayın 11'si saat 02 UTC'ye kadar geçerli Tahmin
Rüzgar doğu/kuzeydoğudan 8 kt
Görüş mesafesi 10 km veya daha fazla
1500 m altında bulut yok ve kümülonimbus yok

TAF: YTNK 101203Z 1014/1102 07008KT CAVOK

4.000'den fazla havaalanı için hava durumu gözlemleri ve tahminleri (METAR ve TAF raporları).

Kullanılabilir istasyonlar harita üzerinde sarı ve kırmızı noktalarla gösterilir.

İstasyonun adını görmek için fareyi noktanın üzerinde gezdirin.

Sonrasında hava gözlem ve tahminlerini görmek için tıklayın.

Haritayı değiştirmek için: yaklaştırmak için siyah artı işaretli yeşil düğmeye ve uzaklaştırmak için de eksi işaretli düğmeye hızla tıklayın; bitişik haritalar için yeşil okları kullanın.


METAR-TAF: